Terminal Aerodrome Forecast
Issued by NWS Pueblo, CO

Home | Current Version | Previous Version | Text Only | Print | Product List | Glossary On
Versions: 1 2 3 4 5 6 7 8 9 10 11 12 13 14 15 16 17 18 19 20 21 22 23 24 25 26 27
000
FTUS45 KPUB 261120
TAFALS
TAF
KALS 261120Z 2612/2712 14008KT P6SM VCSH BKN040
     FM261500 16010KT 3SM -SN BR OVC020
     FM262100 10010KT 6SM -SHSN BR BKN030
     FM270200 VRB04KT P6SM VCSH BKN025=

USA.gov is the U.S. government's official web portal to all federal, state and local government web resources and services.